Norfolk, Virginia
Traffic Map
Current Weather Conditions
Norfolk, Virginia
Overcast
Overcast
71°
Feels Like: 71°
Wind Chill: 71° Ceiling: 5000
Heat Index: 71° Visibility: 10mi
Dew Point: 61° Wind: 8mph
Humidity: 70% Direction: 40° (NE)
Pressure: 29.97in Gusts: 0mph
Raw Report DataKORF 170851Z AUTO 04007KT 10SM OVC050 22/16 A2997 RMK AO2 SLP148 T02170161 58003 TSNO
Traffic Incident Summary
Active as of:
Severity:
Category:
InformationThere was an issue retrieving the traffic information for this location. Please try a different location or try again shortly.
Advertisements
Track Severe Weather on mobile